createdAt,value
2023-02-03T00:00:33.672Z,8.66
2023-02-03T00:03:00.259Z,8.55
2023-02-03T00:05:27.291Z,8.53
2023-02-03T00:07:53.963Z,8.48
2023-02-03T00:10:21.663Z,8.35
2023-02-03T00:12:50.288Z,8.44
2023-02-03T00:15:16.833Z,8.49
2023-02-03T00:17:43.496Z,8.63
2023-02-03T00:20:11.130Z,8.58
2023-02-03T00:22:50.273Z,8.52
2023-02-03T00:25:17.188Z,8.50
2023-02-03T00:27:43.865Z,8.47
2023-02-03T00:30:12.015Z,8.53
2023-02-03T00:32:38.990Z,8.57
2023-02-03T00:35:05.823Z,8.63
2023-02-03T00:37:32.301Z,8.65
2023-02-03T00:39:58.821Z,8.69
2023-02-03T00:42:25.328Z,8.64
2023-02-03T00:44:53.257Z,8.69
2023-02-03T00:47:20.755Z,8.72
2023-02-03T00:49:47.482Z,8.69
2023-02-03T00:52:15.413Z,8.72
2023-02-03T00:54:41.932Z,8.71
2023-02-03T00:57:08.970Z,8.75
2023-02-03T00:59:35.571Z,8.79
2023-02-03T01:02:02.064Z,8.78
2023-02-03T01:04:28.646Z,8.72
2023-02-03T01:06:57.510Z,8.71
2023-02-03T01:09:24.680Z,8.68
2023-02-03T01:11:51.326Z,8.76
2023-02-03T01:14:18.122Z,8.67
2023-02-03T01:16:44.725Z,8.60
2023-02-03T01:19:11.535Z,8.63
2023-02-03T01:21:38.864Z,8.65
2023-02-03T01:24:05.502Z,8.59
2023-02-03T01:26:32.082Z,8.64
2023-02-03T01:29:01.177Z,8.62
2023-02-03T01:31:31.985Z,8.36
2023-02-03T01:33:58.800Z,8.16
2023-02-03T01:36:26.889Z,8.07
2023-02-03T01:38:53.666Z,8.08
2023-02-03T01:41:22.814Z,8.15
2023-02-03T01:43:52.186Z,8.14
2023-02-03T01:46:23.209Z,8.15
2023-02-03T01:48:50.889Z,8.22
2023-02-03T01:51:17.996Z,8.34
2023-02-03T01:53:44.800Z,8.44
2023-02-03T01:56:11.480Z,8.44
2023-02-03T01:58:41.142Z,8.49
2023-02-03T02:01:08.523Z,8.46
2023-02-03T02:03:41.967Z,8.55
2023-02-03T02:06:11.311Z,8.57
2023-02-03T02:08:40.233Z,8.58
2023-02-03T02:11:07.618Z,8.61
2023-02-03T02:13:37.715Z,8.63
2023-02-03T02:16:35.812Z,8.61
2023-02-03T02:19:09.405Z,8.60
2023-02-03T02:21:53.909Z,8.49
2023-02-03T02:24:29.670Z,8.47
2023-02-03T02:27:06.604Z,8.48
2023-02-03T02:30:06.639Z,8.32
2023-02-03T02:32:57.489Z,8.17
2023-02-03T02:35:23.909Z,8.21
2023-02-03T02:37:56.498Z,8.01
2023-02-03T02:40:43.959Z,7.90
2023-02-03T02:43:19.567Z,8.00
2023-02-03T02:45:50.615Z,8.15
2023-02-03T02:48:32.154Z,8.20
2023-02-03T02:51:04.100Z,8.17
2023-02-03T02:53:35.974Z,8.30
2023-02-03T02:56:07.642Z,8.42
2023-02-03T02:58:36.196Z,8.53
2023-02-03T03:01:03.883Z,8.60
2023-02-03T03:03:33.507Z,8.66
2023-02-03T03:06:03.721Z,8.71
2023-02-03T03:08:36.115Z,8.40
2023-02-03T03:11:03.427Z,8.34
2023-02-03T03:13:34.687Z,8.42
2023-02-03T03:16:05.150Z,8.31
2023-02-03T03:18:35.630Z,8.08
2023-02-03T03:21:07.009Z,7.91
2023-02-03T03:23:39.862Z,8.03
2023-02-03T03:26:28.994Z,8.25
2023-02-03T03:29:07.379Z,8.39
2023-02-03T03:31:37.768Z,8.43
2023-02-03T03:34:04.555Z,8.44
2023-02-03T03:36:59.139Z,8.46
2023-02-03T03:39:37.214Z,8.37
2023-02-03T03:42:31.794Z,8.21
2023-02-03T03:45:04.422Z,8.08
2023-02-03T03:47:35.932Z,7.88
2023-02-03T03:50:06.619Z,7.73
2023-02-03T03:52:36.180Z,7.57
2023-02-03T03:55:08.791Z,7.24
2023-02-03T03:57:59.951Z,7.03
2023-02-03T04:00:31.539Z,6.99
2023-02-03T04:03:02.190Z,6.98
2023-02-03T04:05:28.737Z,6.97
2023-02-03T04:07:55.281Z,6.85
2023-02-03T04:10:32.396Z,6.78
2023-02-03T04:12:59.248Z,6.69
2023-02-03T04:15:26.092Z,6.67
2023-02-03T04:17:52.683Z,6.58
2023-02-03T04:20:19.218Z,6.49
2023-02-03T04:22:45.749Z,6.52
2023-02-03T04:25:12.724Z,6.42
2023-02-03T04:27:40.269Z,6.60
2023-02-03T04:30:07.910Z,6.89
2023-02-03T04:32:35.528Z,6.82
2023-02-03T04:35:04.875Z,6.82
2023-02-03T04:37:31.481Z,6.78
2023-02-03T04:39:58.025Z,6.81
2023-02-03T04:42:24.990Z,6.88
2023-02-03T04:44:51.657Z,6.84
2023-02-03T04:47:19.032Z,6.80
2023-02-03T04:49:45.934Z,6.75
2023-02-03T04:52:12.972Z,6.74
2023-02-03T04:54:40.361Z,6.53
2023-02-03T04:57:07.235Z,6.09
2023-02-03T04:59:33.911Z,6.01
2023-02-03T05:02:03.640Z,5.88
2023-02-03T05:04:30.301Z,5.90
2023-02-03T05:06:57.599Z,6.11
2023-02-03T05:09:25.231Z,6.06
2023-02-03T05:11:51.934Z,5.72
2023-02-03T05:14:18.500Z,5.40
2023-02-03T05:16:46.457Z,5.30
2023-02-03T05:19:13.429Z,5.43
2023-02-03T05:21:40.644Z,5.74
2023-02-03T05:24:08.022Z,5.92
2023-02-03T05:26:36.046Z,6.05
2023-02-03T05:29:03.172Z,6.21
2023-02-03T05:31:29.763Z,6.43
2023-02-03T05:33:56.821Z,6.55
2023-02-03T05:36:23.336Z,6.55
2023-02-03T05:38:49.835Z,6.43
2023-02-03T05:41:35.017Z,6.35
2023-02-03T05:44:01.543Z,6.09
2023-02-03T05:46:28.118Z,5.91
2023-02-03T05:48:54.675Z,5.85
2023-02-03T05:51:21.272Z,5.87
2023-02-03T05:53:47.816Z,6.08
2023-02-03T05:56:15.606Z,6.01
2023-02-03T05:58:42.146Z,5.98
2023-02-03T06:01:09.191Z,5.95
2023-02-03T06:03:35.906Z,5.88
2023-02-03T06:06:02.684Z,5.82
2023-02-03T06:08:29.211Z,5.98
2023-02-03T06:11:02.179Z,6.08
2023-02-03T06:13:29.100Z,6.00
2023-02-03T06:15:56.361Z,6.04
2023-02-03T06:18:23.241Z,6.10
2023-02-03T06:20:51.366Z,6.12
2023-02-03T06:23:19.206Z,6.07
2023-02-03T06:25:49.327Z,5.94
2023-02-03T06:28:16.785Z,6.01
2023-02-03T06:30:44.049Z,6.09
2023-02-03T06:33:10.734Z,6.11
2023-02-03T06:35:37.434Z,6.18
2023-02-03T06:38:03.962Z,6.22
2023-02-03T06:40:31.064Z,6.25
2023-02-03T06:42:57.789Z,6.17
2023-02-03T06:45:25.070Z,5.88
2023-02-03T06:47:52.010Z,5.78
2023-02-03T06:50:19.145Z,5.74
2023-02-03T06:52:46.029Z,5.74
2023-02-03T06:55:13.076Z,5.61
2023-02-03T06:57:46.871Z,5.60
2023-02-03T07:00:18.184Z,5.68
2023-02-03T07:02:45.464Z,5.63
2023-02-03T07:05:12.033Z,5.66
2023-02-03T07:07:40.104Z,5.62
2023-02-03T07:10:08.054Z,5.58
2023-02-03T07:12:36.439Z,5.33
2023-02-03T07:15:04.471Z,5.34
2023-02-03T07:17:31.252Z,5.52
2023-02-03T07:19:57.907Z,5.63
2023-02-03T07:22:24.495Z,5.81
2023-02-03T07:24:51.007Z,5.93
2023-02-03T07:27:17.534Z,6.04
2023-02-03T07:29:44.014Z,6.18
2023-02-03T07:32:10.542Z,6.31
2023-02-03T07:34:37.057Z,6.31
2023-02-03T07:37:05.378Z,6.19
2023-02-03T07:39:33.098Z,6.00
2023-02-03T07:41:59.635Z,5.87
2023-02-03T07:44:26.235Z,5.83
2023-02-03T07:46:52.794Z,5.71
2023-02-03T07:49:19.345Z,5.68
2023-02-03T07:51:45.837Z,5.56
2023-02-03T07:54:12.446Z,5.61
2023-02-03T07:56:39.153Z,5.79
2023-02-03T07:59:05.699Z,5.89
2023-02-03T08:01:34.163Z,5.99
2023-02-03T08:04:02.128Z,6.10
2023-02-03T08:06:30.626Z,6.17
2023-02-03T08:08:57.171Z,6.23
2023-02-03T08:11:23.650Z,6.16
2023-02-03T08:13:50.165Z,6.03
2023-02-03T08:16:16.971Z,5.98
2023-02-03T08:18:43.451Z,5.83
2023-02-03T08:21:11.613Z,5.85
2023-02-03T08:23:38.516Z,5.96
2023-02-03T08:26:06.019Z,6.06
2023-02-03T08:28:32.670Z,6.09
2023-02-03T08:30:59.461Z,6.19
2023-02-03T08:33:26.334Z,6.18
2023-02-03T08:35:52.901Z,6.11
2023-02-03T08:38:19.429Z,6.03
2023-02-03T08:40:45.944Z,5.94
2023-02-03T08:43:12.608Z,6.04
2023-02-03T08:45:40.729Z,6.11
2023-02-03T08:48:07.566Z,6.10
2023-02-03T08:50:34.406Z,6.18
2023-02-03T08:53:01.030Z,6.56
2023-02-03T08:55:27.688Z,6.65
2023-02-03T08:57:54.160Z,6.75
2023-02-03T09:00:21.105Z,6.87
2023-02-03T09:02:47.587Z,7.05
2023-02-03T09:05:16.086Z,7.37
2023-02-03T09:07:42.665Z,7.43
2023-02-03T09:10:10.643Z,7.40
2023-02-03T09:12:37.181Z,7.40
2023-02-03T09:15:03.918Z,7.44
2023-02-03T09:17:30.465Z,7.43
2023-02-03T09:19:57.061Z,7.60
2023-02-03T09:22:23.690Z,7.64
2023-02-03T09:24:51.467Z,7.87
2023-02-03T09:27:18.092Z,7.89
2023-02-03T09:29:44.620Z,8.00
2023-02-03T09:32:13.168Z,8.15
2023-02-03T09:34:41.382Z,8.13
2023-02-03T09:37:09.096Z,8.18
2023-02-03T09:39:35.648Z,8.26
2023-02-03T09:42:27.014Z,8.57
2023-02-03T09:45:29.071Z,8.79
2023-02-03T09:48:02.353Z,8.98
2023-02-03T09:50:32.077Z,9.23
2023-02-03T09:52:59.110Z,9.30
2023-02-03T09:55:43.273Z,9.59
2023-02-03T09:58:15.014Z,9.95
2023-02-03T10:00:46.989Z,9.90
2023-02-03T10:03:13.436Z,9.77
2023-02-03T10:06:07.833Z,9.87
2023-02-03T10:08:53.167Z,9.94
2023-02-03T10:11:40.496Z,10.06
2023-02-03T10:14:22.471Z,10.42
2023-02-03T10:17:02.182Z,10.86
2023-02-03T10:19:46.585Z,11.00
2023-02-03T10:22:18.659Z,10.79
2023-02-03T10:24:57.807Z,11.08
2023-02-03T10:27:25.920Z,11.19
2023-02-03T10:30:12.399Z,11.24
2023-02-03T10:32:39.133Z,10.88
2023-02-03T10:35:12.103Z,11.21
2023-02-03T10:37:45.305Z,11.47
2023-02-03T10:40:14.488Z,11.51
2023-02-03T10:43:01.544Z,11.86
2023-02-03T10:45:29.518Z,11.63
2023-02-03T10:47:56.464Z,11.71
2023-02-03T10:50:31.836Z,12.20
2023-02-03T10:53:23.482Z,12.34
2023-02-03T10:56:11.864Z,12.18
2023-02-03T10:58:39.154Z,12.25
2023-02-03T11:01:13.209Z,12.60
2023-02-03T11:04:01.242Z,12.68
2023-02-03T11:06:28.418Z,12.74
2023-02-03T11:08:55.689Z,13.10
2023-02-03T11:11:33.858Z,14.13
2023-02-03T11:14:03.556Z,14.33
2023-02-03T11:16:37.835Z,14.05
2023-02-03T11:19:10.393Z,14.65
2023-02-03T11:21:42.631Z,15.71
2023-02-03T11:24:21.683Z,17.37
2023-02-03T11:26:51.010Z,18.82
2023-02-03T11:29:32.267Z,20.32
2023-02-03T11:32:01.907Z,21.23
2023-02-03T11:34:34.160Z,21.23
2023-02-03T11:37:38.234Z,22.02
2023-02-03T11:40:09.382Z,22.18
2023-02-03T11:42:41.599Z,22.34
2023-02-03T11:45:28.333Z,22.65
2023-02-03T11:48:28.067Z,23.98
2023-02-03T11:51:04.258Z,21.52
2023-02-03T11:53:57.207Z,19.99
2023-02-03T11:56:29.615Z,18.08
2023-02-03T11:59:02.142Z,17.83
2023-02-03T12:01:56.922Z,17.94
2023-02-03T12:04:48.853Z,19.60
2023-02-03T12:07:32.896Z,21.39
2023-02-03T12:10:14.606Z,22.69
2023-02-03T12:12:59.845Z,23.01
2023-02-03T12:15:35.555Z,24.03
2023-02-03T12:18:15.198Z,24.74
2023-02-03T12:20:56.355Z,24.74
2023-02-03T12:23:55.686Z,24.15
2023-02-03T12:26:25.300Z,23.46
2023-02-03T12:29:01.850Z,23.75
2023-02-03T12:31:29.496Z,24.33
2023-02-03T12:34:23.515Z,25.41
2023-02-03T12:36:58.585Z,25.17
2023-02-03T12:39:35.888Z,26.41
2023-02-03T12:42:11.657Z,26.04
2023-02-03T12:44:47.434Z,24.67
2023-02-03T12:47:22.157Z,23.01
2023-02-03T12:49:57.829Z,20.72
2023-02-03T12:52:33.567Z,20.38
2023-02-03T12:55:03.739Z,20.87
2023-02-03T12:57:40.397Z,21.62
2023-02-03T13:00:26.849Z,21.65
2023-02-03T13:03:12.287Z,22.21
2023-02-03T13:05:48.676Z,22.43
2023-02-03T13:08:24.111Z,21.50
2023-02-03T13:10:55.759Z,20.14
2023-02-03T13:13:31.506Z,18.79
2023-02-03T13:16:00.115Z,18.29
2023-02-03T13:18:34.842Z,17.73
2023-02-03T13:21:01.604Z,17.11
2023-02-03T13:23:28.212Z,16.35
2023-02-03T13:26:11.075Z,16.02
2023-02-03T13:28:46.813Z,15.51
2023-02-03T13:31:40.921Z,15.03
2023-02-03T13:34:40.483Z,15.06
2023-02-03T13:37:20.329Z,14.42
2023-02-03T13:39:53.037Z,14.41
2023-02-03T13:42:22.606Z,14.22
2023-02-03T13:44:53.520Z,14.12
2023-02-03T13:47:27.898Z,14.32
2023-02-03T13:50:10.254Z,14.16
2023-02-03T13:52:44.417Z,14.13
2023-02-03T13:55:28.677Z,13.90
2023-02-03T13:57:55.798Z,13.93
2023-02-03T14:00:44.387Z,13.79
2023-02-03T14:03:40.479Z,13.84
2023-02-03T14:06:36.397Z,13.90
2023-02-03T14:09:19.249Z,13.75
2023-02-03T14:11:49.204Z,13.63
2023-02-03T14:14:15.656Z,13.66
2023-02-03T14:16:44.111Z,13.67
2023-02-03T14:19:13.252Z,13.64
2023-02-03T14:21:48.565Z,13.43
2023-02-03T14:24:16.020Z,13.61
2023-02-03T14:26:46.954Z,13.44
2023-02-03T14:29:29.525Z,13.37
2023-02-03T14:32:01.839Z,13.41
2023-02-03T14:34:34.549Z,13.33
2023-02-03T14:37:14.553Z,13.06
2023-02-03T14:39:59.960Z,13.23
2023-02-03T14:43:09.345Z,13.14
2023-02-03T14:45:51.322Z,12.93
2023-02-03T14:48:33.296Z,12.78
2023-02-03T14:51:18.525Z,12.77
2023-02-03T14:54:03.477Z,12.84
2023-02-03T14:57:16.095Z,12.86
2023-02-03T14:59:56.425Z,12.69
2023-02-03T15:02:31.070Z,12.48
2023-02-03T15:05:12.726Z,12.35
2023-02-03T15:07:45.665Z,12.25
2023-02-03T15:10:21.328Z,12.27
2023-02-03T15:12:50.100Z,12.24
2023-02-03T15:15:26.754Z,12.00
2023-02-03T15:17:59.673Z,11.70
2023-02-03T15:20:35.907Z,11.52
2023-02-03T15:23:03.310Z,11.41
2023-02-03T15:25:32.957Z,11.27
2023-02-03T15:28:20.540Z,11.23
2023-02-03T15:30:52.640Z,11.24
2023-02-03T15:33:22.765Z,11.31
2023-02-03T15:36:01.477Z,11.20
2023-02-03T15:38:39.256Z,11.38
2023-02-03T15:41:10.463Z,11.53
2023-02-03T15:43:39.255Z,11.65
2023-02-03T15:46:07.993Z,11.65
2023-02-03T15:48:47.137Z,11.52
2023-02-03T15:51:26.355Z,11.69
2023-02-03T15:54:03.364Z,11.70
2023-02-03T15:56:55.118Z,11.53
2023-02-03T15:59:35.262Z,11.36
2023-02-03T16:02:12.081Z,11.47
2023-02-03T16:04:39.000Z,11.31
2023-02-03T16:07:05.676Z,11.10
2023-02-03T16:09:36.009Z,11.10
2023-02-03T16:12:35.744Z,11.09
2023-02-03T16:15:03.083Z,11.29
2023-02-03T16:17:40.316Z,11.43
2023-02-03T16:20:12.933Z,11.36
2023-02-03T16:22:45.393Z,11.26
2023-02-03T16:25:27.913Z,10.92
2023-02-03T16:28:20.602Z,11.01
2023-02-03T16:31:13.498Z,10.97
2023-02-03T16:34:03.213Z,10.75
2023-02-03T16:36:48.736Z,10.54
2023-02-03T16:39:34.060Z,10.60
2023-02-03T16:42:19.363Z,10.81
2023-02-03T16:45:04.932Z,10.67
2023-02-03T16:47:51.097Z,10.79
2023-02-03T16:50:41.757Z,10.83
2023-02-03T16:53:26.641Z,10.90
2023-02-03T16:55:55.137Z,10.84
2023-02-03T16:58:21.743Z,10.71
2023-02-03T17:00:50.379Z,10.62
2023-02-03T17:03:18.325Z,10.50
2023-02-03T17:05:45.925Z,10.57
2023-02-03T17:08:13.419Z,10.36
2023-02-03T17:10:42.761Z,10.07
2023-02-03T17:13:10.793Z,9.77
2023-02-03T17:15:46.140Z,9.66
2023-02-03T17:18:15.073Z,9.97
2023-02-03T17:20:42.786Z,10.16
2023-02-03T17:23:10.767Z,10.25
2023-02-03T17:25:38.306Z,10.33
2023-02-03T17:28:07.420Z,10.38
2023-02-03T17:30:35.332Z,10.50
2023-02-03T17:33:03.504Z,10.47
2023-02-03T17:35:30.437Z,10.25
2023-02-03T17:37:57.383Z,10.00
2023-02-03T17:54:10.943Z,10.13
2023-02-03T17:56:37.710Z,10.02
2023-02-03T17:59:05.803Z,10.06
2023-02-03T18:01:32.747Z,10.01
2023-02-03T18:04:02.633Z,9.90
2023-02-03T18:06:30.605Z,9.94
2023-02-03T18:09:01.237Z,9.99
2023-02-03T18:11:29.315Z,9.80
2023-02-03T18:13:56.160Z,9.73
2023-02-03T18:16:26.173Z,9.75
2023-02-03T18:18:53.643Z,9.62
2023-02-03T18:21:22.191Z,9.52
2023-02-03T18:23:51.103Z,9.37
2023-02-03T18:26:19.843Z,9.41
2023-02-03T18:28:46.633Z,9.35
2023-02-03T18:31:17.584Z,9.28
2023-02-03T18:33:46.238Z,9.26
2023-02-03T18:36:13.814Z,9.38
2023-02-03T18:38:45.271Z,9.51
2023-02-03T18:41:15.209Z,9.57
2023-02-03T18:43:41.829Z,9.54
2023-02-03T18:46:14.095Z,9.51
2023-02-03T18:48:40.578Z,9.61
2023-02-03T18:51:15.959Z,9.68
2023-02-03T18:53:43.935Z,9.71
2023-02-03T18:56:16.510Z,9.69
2023-02-03T18:58:43.365Z,9.67
2023-02-03T19:01:25.365Z,9.61
2023-02-03T19:03:52.097Z,9.40
2023-02-03T19:06:18.828Z,8.96
2023-02-03T19:08:45.864Z,8.59
2023-02-03T19:11:13.562Z,8.45
2023-02-03T19:13:40.968Z,8.51
2023-02-03T19:16:09.191Z,8.66
2023-02-03T19:18:36.271Z,8.79
2023-02-03T19:21:02.815Z,8.82
2023-02-03T19:23:29.624Z,8.82
2023-02-03T19:25:56.347Z,8.93
2023-02-03T19:28:30.636Z,9.05
2023-02-03T19:31:08.452Z,8.98
2023-02-03T19:33:36.679Z,8.96
2023-02-03T19:36:05.105Z,8.89
2023-02-03T19:38:31.843Z,8.91
2023-02-03T19:41:01.705Z,8.98
2023-02-03T19:43:29.713Z,9.14
2023-02-03T19:45:56.548Z,9.15
2023-02-03T19:48:22.990Z,9.13
2023-02-03T19:50:49.842Z,9.03
2023-02-03T19:53:17.580Z,9.06
2023-02-03T19:55:44.950Z,9.09
2023-02-03T19:58:12.656Z,9.15
2023-02-03T20:00:40.423Z,9.12
2023-02-03T20:03:07.091Z,8.94
2023-02-03T20:05:34.516Z,8.94
2023-02-03T20:08:01.157Z,8.74
2023-02-03T20:10:28.465Z,8.72
2023-02-03T20:12:55.476Z,8.76
2023-02-03T20:15:22.088Z,8.75
2023-02-03T20:17:48.641Z,8.84
2023-02-03T20:20:17.119Z,8.89
2023-02-03T20:22:44.805Z,8.90
2023-02-03T20:25:11.380Z,9.02
2023-02-03T20:27:37.989Z,9.14
2023-02-03T20:30:05.397Z,9.13
2023-02-03T20:32:31.927Z,9.06
2023-02-03T20:34:59.908Z,9.13
2023-02-03T20:37:26.436Z,9.17
2023-02-03T20:39:53.029Z,9.17
2023-02-03T20:42:19.619Z,9.17
2023-02-03T20:44:46.121Z,9.08
2023-02-03T20:47:14.846Z,8.87
2023-02-03T20:49:41.274Z,8.83
2023-02-03T20:52:13.635Z,8.98
2023-02-03T20:54:40.926Z,8.98
2023-02-03T20:57:17.770Z,8.95
2023-02-03T20:59:48.422Z,9.01
2023-02-03T21:02:18.276Z,9.03
2023-02-03T21:05:00.261Z,9.05
2023-02-03T21:07:30.589Z,9.12
2023-02-03T21:09:59.172Z,8.83
2023-02-03T21:12:28.147Z,8.74
2023-02-03T21:14:55.196Z,8.67
2023-02-03T21:17:27.253Z,8.75
2023-02-03T21:19:54.961Z,8.80
2023-02-03T21:22:26.833Z,8.91
2023-02-03T21:24:58.349Z,8.90
2023-02-03T21:27:29.133Z,8.90
2023-02-03T21:29:57.611Z,8.80
2023-02-03T21:32:38.990Z,8.82
2023-02-03T21:35:31.907Z,8.88
2023-02-03T21:38:04.051Z,8.89
2023-02-03T21:40:33.322Z,8.88
2023-02-03T21:43:01.476Z,8.82
2023-02-03T21:45:35.609Z,8.86
2023-02-03T21:48:29.039Z,8.95
2023-02-03T21:50:59.497Z,8.88
2023-02-03T21:53:32.926Z,8.87
2023-02-03T21:56:16.126Z,8.78
2023-02-03T21:58:44.198Z,8.87
2023-02-03T22:01:16.441Z,8.96
2023-02-03T22:03:47.574Z,9.03
2023-02-03T22:06:28.868Z,9.03
2023-02-03T22:08:58.703Z,8.97
2023-02-03T22:11:27.753Z,8.85
2023-02-03T22:13:54.769Z,8.67
2023-02-03T22:16:21.862Z,8.58
2023-02-03T22:18:49.209Z,8.49
2023-02-03T22:21:16.661Z,8.26
2023-02-03T22:23:43.844Z,7.95
2023-02-03T22:26:12.228Z,7.66
2023-02-03T22:28:40.604Z,7.54
2023-02-03T22:31:08.516Z,7.57
2023-02-03T22:33:35.860Z,7.82
2023-02-03T22:36:03.436Z,8.13
2023-02-03T22:38:30.618Z,8.37
2023-02-03T22:40:57.145Z,8.50
2023-02-03T22:43:23.930Z,8.51
2023-02-03T22:45:50.449Z,8.46
2023-02-03T22:48:16.971Z,8.50
2023-02-03T22:50:43.481Z,8.50
2023-02-03T22:53:10.358Z,8.49
2023-02-03T22:55:41.323Z,8.55
2023-02-03T22:58:09.135Z,8.53
2023-02-03T23:00:35.886Z,8.49
2023-02-03T23:03:02.665Z,8.54
2023-02-03T23:05:29.252Z,8.50
2023-02-03T23:07:55.751Z,8.45
2023-02-03T23:10:25.394Z,8.50
2023-02-03T23:12:53.446Z,8.51
2023-02-03T23:15:20.178Z,8.45
2023-02-03T23:17:46.752Z,8.51
2023-02-03T23:20:15.681Z,8.60
2023-02-03T23:22:42.737Z,8.23
2023-02-03T23:25:10.549Z,8.08
2023-02-03T23:27:37.911Z,8.11
2023-02-03T23:30:06.279Z,7.83
2023-02-03T23:32:33.862Z,7.56
2023-02-03T23:38:11.243Z,7.42
2023-02-03T23:40:37.797Z,7.50
2023-02-03T23:43:04.257Z,7.74
2023-02-03T23:45:30.745Z,7.89
2023-02-03T23:47:57.438Z,8.04
2023-02-03T23:50:23.963Z,8.04
2023-02-03T23:52:50.488Z,8.15
2023-02-03T23:55:19.752Z,8.15
2023-02-03T23:57:46.586Z,8.23
